Rui Hai 1 — T8A2559 — position and weather

sailwx.info

Track history (hours):
 
Tides and Currents Weather Stations Pressure Air Temp Water Temp Dewpoint Dewpoint Depression Visibility Wind Speed Wind Dir Waves Ship Positions

Rui Hai 1

Last reported at 2018-Feb-14 17:00 UTC. Time now 2018-Feb-18 04:41 UTC.
Position N 24°24' E 118°42'.

Length 97 m; draft 5 m.

Type: Ship. MMSI: 511475000.

Date/timePositionNaut miles runAvg speedWind from/ knotsBaromVisibWave heightAir tempDewpointWater temp
2018-Feb-14 17:00N 24°24' E 118°42'611.5
2018-Feb-14 16:27N 24°20' E 118°36'511.1
2018-Feb-14 16:00N 24°17' E 118°32'611.6
2018-Feb-14 15:30N 24°14' E 118°27'611.8
2018-Feb-14 15:00N 24°11' E 118°22'611.8
2018-Feb-14 14:30N 24°07' E 118°16'612.2
2018-Feb-14 14:00N 24°04' E 118°11'612.6
2018-Feb-14 13:30N 23°60' E 118°06'713.0
2018-Feb-14 12:57N 23°55' E 117°60'613.0
2018-Feb-14 12:30N 23°51' E 117°55'917.0
2018-Feb-14 11:59N 23°45' E 117°48'4 8.3
2018-Feb-14 11:30N 23°42' E 117°45'612.8
2018-Feb-14 11:00N 23°38' E 117°40'612.7
2018-Feb-14 10:30N 23°34' E 117°35'612.3
2018-Feb-14 10:00N 23°29' E 117°30'611.8
2018-Feb-14 09:30N 23°25' E 117°25'611.4
2018-Feb-14 09:00N 23°21' E 117°21'611.1
2018-Feb-14 08:30N 23°17' E 117°16'610.9
2018-Feb-14 07:59N 23°13' E 117°12'610.4
2018-Feb-14 07:24N 23°09' E 117°08'410.4
2018-Feb-14 07:00N 23°07' E 117°03'510.3
2018-Feb-14 06:30N 23°04' E 116°59'510.5
2018-Feb-14 06:00N 23°02' E 116°54'1510.7
2018-Feb-14 04:36N 22°55' E 116°39'  
Track history (hours):
 
Tides and Currents Weather Stations Pressure Air Temp Water Temp Dewpoint Dewpoint Depression Visibility Wind Speed Wind Dir Waves Ship Positions

Rui Hai 1

Last reported at 2018-Feb-14 17:00 UTC. Time now 2018-Feb-18 04:41 UTC.
Position N 24°24' E 118°42'.

Length 97 m; draft 5 m.

Type: Ship. MMSI: 511475000.

Date/timePositionNaut miles runAvg speedWind from/ knotsBaromVisibWave heightAir tempDewpointWater temp
2018-Feb-14 17:00N 24°24' E 118°42'611.5
2018-Feb-14 16:27N 24°20' E 118°36'511.1
2018-Feb-14 16:00N 24°17' E 118°32'611.6
2018-Feb-14 15:30N 24°14' E 118°27'611.8
2018-Feb-14 15:00N 24°11' E 118°22'611.8
2018-Feb-14 14:30N 24°07' E 118°16'612.2
2018-Feb-14 14:00N 24°04' E 118°11'612.6
2018-Feb-14 13:30N 23°60' E 118°06'713.0
2018-Feb-14 12:57N 23°55' E 117°60'613.0
2018-Feb-14 12:30N 23°51' E 117°55'917.0
2018-Feb-14 11:59N 23°45' E 117°48'4 8.3
2018-Feb-14 11:30N 23°42' E 117°45'612.8
2018-Feb-14 11:00N 23°38' E 117°40'612.7
2018-Feb-14 10:30N 23°34' E 117°35'612.3
2018-Feb-14 10:00N 23°29' E 117°30'611.8
2018-Feb-14 09:30N 23°25' E 117°25'611.4
2018-Feb-14 09:00N 23°21' E 117°21'611.1
2018-Feb-14 08:30N 23°17' E 117°16'610.9
2018-Feb-14 07:59N 23°13' E 117°12'610.4
2018-Feb-14 07:24N 23°09' E 117°08'410.4
2018-Feb-14 07:00N 23°07' E 117°03'510.3
2018-Feb-14 06:30N 23°04' E 116°59'510.5
2018-Feb-14 06:00N 23°02' E 116°54'1510.7
2018-Feb-14 04:36N 22°55' E 116°39'  

Dump ship's entire track history